createdAt,value
2017-01-14T00:00:19.960Z,0
2017-01-14T00:01:22.926Z,0
2017-01-14T00:02:26.400Z,0
2017-01-14T00:03:29.366Z,0
2017-01-14T00:04:32.835Z,0
2017-01-14T00:05:35.803Z,0
2017-01-14T00:06:38.772Z,0
2017-01-14T00:07:42.244Z,0
2017-01-14T00:08:45.213Z,0
2017-01-14T00:09:48.176Z,0
2017-01-14T00:10:51.646Z,0
2017-01-14T00:11:54.619Z,0
2017-01-14T00:12:57.589Z,0
2017-01-14T00:15:03.975Z,0
2017-01-14T00:16:07.447Z,0
2017-01-14T00:17:10.259Z,0
2017-01-14T00:18:13.366Z,0
2017-01-14T00:19:16.834Z,0
2017-01-14T00:20:19.806Z,0
2017-01-14T00:21:23.278Z,0
2017-01-14T00:22:26.248Z,0
2017-01-14T00:24:32.627Z,0
2017-01-14T00:25:35.591Z,0
2017-01-14T00:26:39.068Z,0
2017-01-14T00:27:42.035Z,0
2017-01-14T00:28:45.000Z,0
2017-01-14T00:29:48.466Z,0
2017-01-14T00:30:51.430Z,0
2017-01-14T00:31:54.398Z,0
2017-01-14T00:32:57.865Z,0
2017-01-14T00:34:00.830Z,-0.1
2017-01-14T00:35:03.799Z,0
2017-01-14T00:36:07.267Z,0
2017-01-14T00:37:10.230Z,0
2017-01-14T00:38:13.709Z,0
2017-01-14T00:39:16.673Z,0
2017-01-14T00:40:19.638Z,-0.1
2017-01-14T00:41:23.114Z,-0.1
2017-01-14T00:42:26.077Z,0
2017-01-14T00:43:29.048Z,-0.1
2017-01-14T00:44:32.512Z,-0.1
2017-01-14T00:45:35.472Z,-0.1
2017-01-14T00:46:38.940Z,-0.1
2017-01-14T00:47:41.906Z,-0.1
2017-01-14T00:48:44.883Z,-0.1
2017-01-14T00:49:48.408Z,-0.1
2017-01-14T00:50:51.371Z,-0.1
2017-01-14T00:52:57.753Z,0
2017-01-14T00:54:00.716Z,-0.1
2017-01-14T00:55:04.181Z,-0.1
2017-01-14T00:56:07.145Z,-0.1
2017-01-14T00:57:10.111Z,0
2017-01-14T00:58:13.580Z,0
2017-01-14T00:59:16.545Z,-0.1
2017-01-14T01:00:19.512Z,0
2017-01-14T01:01:22.981Z,0
2017-01-14T01:02:25.944Z,0
2017-01-14T01:03:29.413Z,-0.1
2017-01-14T01:04:32.376Z,-0.1
2017-01-14T01:05:35.345Z,0
2017-01-14T01:06:38.814Z,0
2017-01-14T01:07:41.789Z,0
2017-01-14T01:08:44.764Z,0
2017-01-14T01:09:48.233Z,0
2017-01-14T01:10:51.199Z,0
2017-01-14T01:11:54.667Z,-0.1
2017-01-14T01:12:57.630Z,0
2017-01-14T01:14:00.598Z,0
2017-01-14T01:15:04.070Z,0
2017-01-14T01:16:07.032Z,0
2017-01-14T01:17:09.995Z,0
2017-01-14T01:18:13.466Z,0
2017-01-14T01:19:16.431Z,0
2017-01-14T01:20:19.898Z,0
2017-01-14T01:21:22.861Z,0
2017-01-14T01:22:25.825Z,-0.1
2017-01-14T01:23:29.292Z,0
2017-01-14T01:24:32.258Z,-0.1
2017-01-14T01:25:35.225Z,-0.1
2017-01-14T01:26:38.696Z,-0.1
2017-01-14T01:27:41.658Z,0
2017-01-14T01:28:45.129Z,0
2017-01-14T01:29:48.096Z,0
2017-01-14T01:30:51.061Z,-0.1
2017-01-14T01:31:54.530Z,-0.1
2017-01-14T01:32:57.492Z,-0.1
2017-01-14T01:34:00.465Z,-0.1
2017-01-14T01:35:03.938Z,-0.1
2017-01-14T01:36:06.904Z,-0.1
2017-01-14T01:37:10.378Z,0
2017-01-14T01:38:13.346Z,-0.1
2017-01-14T01:39:16.314Z,-0.1
2017-01-14T01:40:19.811Z,0
2017-01-14T01:42:25.857Z,-0.1
2017-01-14T01:43:28.821Z,-0.1
2017-01-14T01:44:32.289Z,-0.1
2017-01-14T01:45:35.261Z,-0.1
2017-01-14T01:46:38.730Z,-0.1
2017-01-14T01:47:41.696Z,-0.1
2017-01-14T01:48:44.661Z,-0.1
2017-01-14T01:49:48.126Z,-0.1
2017-01-14T01:50:51.093Z,-0.1
2017-01-14T01:51:54.061Z,-0.1
2017-01-14T01:52:57.525Z,-0.1
2017-01-14T01:54:00.493Z,-0.1
2017-01-14T01:55:03.960Z,-0.1
2017-01-14T01:56:06.929Z,-0.1
2017-01-14T01:57:09.897Z,-0.1
2017-01-14T01:58:13.365Z,-0.1
2017-01-14T01:59:16.332Z,-0.1
2017-01-14T02:00:19.300Z,-0.1
2017-01-14T02:01:22.772Z,-0.1
2017-01-14T02:02:25.737Z,-0.1
2017-01-14T02:03:29.212Z,-0.1
2017-01-14T02:04:32.176Z,-0.1
2017-01-14T02:05:35.140Z,-0.1
2017-01-14T02:06:38.609Z,-0.1
2017-01-14T02:07:41.567Z,-0.1
2017-01-14T02:08:44.531Z,-0.1
2017-01-14T02:09:48.000Z,-0.1
2017-01-14T02:10:50.963Z,-0.1
2017-01-14T02:11:54.435Z,-0.1
2017-01-14T02:12:57.400Z,-0.1
2017-01-14T02:14:00.368Z,-0.1
2017-01-14T02:15:03.836Z,-0.1
2017-01-14T02:16:06.815Z,-0.1
2017-01-14T02:17:09.802Z,-0.1
2017-01-14T02:18:13.271Z,-0.1
2017-01-14T02:19:16.235Z,-0.1
2017-01-14T02:20:19.200Z,-0.1
2017-01-14T02:21:22.674Z,-0.1
2017-01-14T02:22:25.637Z,-0.1
2017-01-14T02:23:29.107Z,-0.1
2017-01-14T02:24:32.071Z,-0.1
2017-01-14T02:25:35.040Z,-0.1
2017-01-14T02:26:38.537Z,-0.1
2017-01-14T02:27:41.503Z,-0.1
2017-01-14T02:28:44.473Z,-0.1
2017-01-14T02:29:47.969Z,-0.1
2017-01-14T02:30:50.933Z,-0.1
2017-01-14T02:31:53.900Z,-0.1
2017-01-14T02:32:57.369Z,-0.1
2017-01-14T02:34:00.334Z,-0.1
2017-01-14T02:35:03.972Z,-0.1
2017-01-14T02:36:06.938Z,-0.1
2017-01-14T02:37:09.905Z,-0.1
2017-01-14T02:38:12.871Z,-0.1
2017-01-14T02:39:16.339Z,-0.1
2017-01-14T02:41:22.717Z,-0.1
2017-01-14T02:42:25.678Z,-0.1
2017-01-14T02:43:28.643Z,-0.1
2017-01-14T02:45:35.019Z,-0.1
2017-01-14T02:46:38.488Z,-0.1
2017-01-14T02:47:41.458Z,-0.1
2017-01-14T02:48:44.428Z,-0.1
2017-01-14T02:49:47.897Z,-0.1
2017-01-14T02:50:51.495Z,-0.1
2017-01-14T02:51:54.162Z,-0.1
2017-01-14T02:52:57.770Z,-0.1
2017-01-14T02:54:00.439Z,-0.1
2017-01-14T02:55:03.405Z,-0.1
2017-01-14T02:56:06.876Z,-0.1
2017-01-14T02:57:09.841Z,-0.1
2017-01-14T02:58:12.810Z,-0.1
2017-01-14T03:00:19.189Z,-0.1
2017-01-14T03:01:22.661Z,-0.1
2017-01-14T03:02:25.632Z,-0.1
2017-01-14T03:03:28.597Z,-0.1
2017-01-14T03:04:32.070Z,-0.1
2017-01-14T03:05:35.033Z,-0.1
2017-01-14T03:06:38.003Z,-0.1
2017-01-14T03:07:41.468Z,-0.1
2017-01-14T03:08:44.432Z,-0.1
2017-01-14T03:09:47.400Z,-0.1
2017-01-14T03:10:50.872Z,-0.1
2017-01-14T03:11:53.838Z,-0.1
2017-01-14T03:12:57.307Z,-0.1
2017-01-14T03:14:00.272Z,-0.1
2017-01-14T03:15:03.460Z,-0.1
2017-01-14T03:16:06.428Z,-0.1
2017-01-14T03:17:09.899Z,-0.1
2017-01-14T03:18:12.870Z,-0.1
2017-01-14T03:19:15.848Z,-0.1
2017-01-14T03:20:19.328Z,-0.1
2017-01-14T03:21:22.305Z,-0.1
2017-01-14T03:22:25.283Z,-0.1
2017-01-14T03:23:28.762Z,-0.1
2017-01-14T03:24:31.735Z,-0.1
2017-01-14T03:25:35.210Z,-0.1
2017-01-14T03:26:38.184Z,-0.1
2017-01-14T03:27:41.157Z,-0.1
2017-01-14T03:28:44.633Z,-0.1
2017-01-14T03:29:47.605Z,-0.1
2017-01-14T03:30:50.581Z,-0.1
2017-01-14T03:31:54.061Z,-0.1
2017-01-14T03:32:57.035Z,-0.1
2017-01-14T03:34:00.009Z,-0.1
2017-01-14T03:35:03.493Z,-0.1
2017-01-14T03:36:06.464Z,-0.1
2017-01-14T03:37:09.435Z,-0.1
2017-01-14T03:38:12.916Z,-0.1
2017-01-14T03:39:15.896Z,-0.1
2017-01-14T03:40:18.870Z,-0.1
2017-01-14T03:41:22.347Z,-0.1
2017-01-14T03:42:25.332Z,-0.1
2017-01-14T03:44:31.718Z,-0.1
2017-01-14T03:45:34.691Z,-0.1
2017-01-14T03:46:38.167Z,-0.1
2017-01-14T03:47:41.142Z,-0.1
2017-01-14T03:48:44.116Z,-0.1
2017-01-14T03:49:47.591Z,-0.1
2017-01-14T03:50:50.571Z,-0.1
2017-01-14T03:51:54.050Z,-0.1
2017-01-14T03:52:57.029Z,-0.1
2017-01-14T03:53:59.999Z,-0.1
2017-01-14T03:55:03.477Z,-0.1
2017-01-14T03:56:06.452Z,-0.1
2017-01-14T03:57:09.427Z,-0.1
2017-01-14T03:58:12.905Z,-0.1
2017-01-14T03:59:15.883Z,-0.1
2017-01-14T04:00:18.861Z,-0.1
2017-01-14T04:01:22.345Z,-0.1
2017-01-14T04:02:25.323Z,-0.1
2017-01-14T04:03:28.299Z,-0.1
2017-01-14T04:04:31.774Z,-0.1
2017-01-14T04:05:34.749Z,-0.1
2017-01-14T04:06:38.225Z,-0.1
2017-01-14T04:07:41.201Z,-0.1
2017-01-14T04:08:44.175Z,-0.1
2017-01-14T04:09:47.654Z,-0.1
2017-01-14T04:10:50.631Z,-0.1
2017-01-14T04:11:53.609Z,-0.1
2017-01-14T04:12:57.088Z,-0.1
2017-01-14T04:14:00.066Z,-0.1
2017-01-14T04:15:03.037Z,-0.1
2017-01-14T04:16:06.514Z,-0.1
2017-01-14T04:17:09.495Z,-0.1
2017-01-14T04:18:12.465Z,-0.1
2017-01-14T04:19:15.941Z,-0.1
2017-01-14T04:20:18.915Z,-0.1
2017-01-14T04:21:22.391Z,-0.1
2017-01-14T04:22:25.366Z,-0.1
2017-01-14T04:23:28.340Z,-0.1
2017-01-14T04:24:31.822Z,-0.1
2017-01-14T04:25:34.818Z,-0.1
2017-01-14T04:26:37.797Z,-0.1
2017-01-14T04:27:41.314Z,-0.1
2017-01-14T04:29:47.194Z,-0.1
2017-01-14T04:30:50.670Z,-0.1
2017-01-14T04:31:53.647Z,-0.1
2017-01-14T04:32:56.617Z,-0.1
2017-01-14T04:34:00.095Z,-0.1
2017-01-14T04:35:03.066Z,-0.1
2017-01-14T04:36:06.541Z,-0.1
2017-01-14T04:37:09.517Z,-0.1
2017-01-14T04:38:12.496Z,-0.1
2017-01-14T04:39:15.972Z,-0.1
2017-01-14T04:40:18.945Z,-0.1
2017-01-14T04:41:21.918Z,-0.1
2017-01-14T04:42:25.393Z,-0.1
2017-01-14T04:43:28.369Z,-0.1
2017-01-14T04:44:31.343Z,0
2017-01-14T04:45:34.816Z,-0.1
2017-01-14T04:46:37.789Z,0
2017-01-14T04:47:40.760Z,0
2017-01-14T04:48:44.236Z,0
2017-01-14T04:49:47.213Z,0
2017-01-14T04:50:50.691Z,0
2017-01-14T04:51:53.668Z,0
2017-01-14T04:52:56.641Z,0
2017-01-14T04:54:00.117Z,-0.1
2017-01-14T04:55:03.094Z,0
2017-01-14T04:56:06.064Z,0
2017-01-14T04:57:09.544Z,0
2017-01-14T04:58:12.518Z,0
2017-01-14T04:59:15.491Z,0
2017-01-14T05:00:18.966Z,0
2017-01-14T05:01:21.942Z,0
2017-01-14T05:02:24.911Z,0
2017-01-14T05:04:31.296Z,0
2017-01-14T05:05:34.774Z,0
2017-01-14T05:06:37.750Z,0
2017-01-14T05:07:40.734Z,0
2017-01-14T05:08:44.217Z,0
2017-01-14T05:09:47.187Z,0
2017-01-14T05:10:50.158Z,0
2017-01-14T05:11:53.636Z,0
2017-01-14T05:12:56.619Z,0
2017-01-14T05:14:00.093Z,0
2017-01-14T05:15:03.240Z,0
2017-01-14T05:16:06.216Z,0
2017-01-14T05:17:09.187Z,0
2017-01-14T05:18:12.665Z,0
2017-01-14T05:19:15.635Z,0
2017-01-14T05:20:18.604Z,0
2017-01-14T05:21:22.084Z,0
2017-01-14T05:22:25.058Z,0
2017-01-14T05:23:28.033Z,0
2017-01-14T05:24:31.508Z,0
2017-01-14T05:25:34.476Z,0
2017-01-14T05:26:37.450Z,0
2017-01-14T05:28:43.841Z,0
2017-01-14T05:29:47.319Z,0
2017-01-14T05:30:50.289Z,0
2017-01-14T05:31:53.261Z,0
2017-01-14T05:32:56.739Z,0
2017-01-14T05:33:59.712Z,0
2017-01-14T05:35:03.192Z,0
2017-01-14T05:36:06.163Z,0
2017-01-14T05:37:09.143Z,0
2017-01-14T05:38:12.624Z,0
2017-01-14T05:39:15.595Z,0
2017-01-14T05:40:18.572Z,0
2017-01-14T05:41:22.049Z,0
2017-01-14T05:42:25.024Z,0
2017-01-14T05:43:27.996Z,0
2017-01-14T05:44:31.472Z,0
2017-01-14T05:45:34.442Z,0
2017-01-14T05:46:37.419Z,0
2017-01-14T05:47:40.901Z,0
2017-01-14T05:48:43.873Z,0
2017-01-14T05:49:47.347Z,0
2017-01-14T05:50:50.322Z,0
2017-01-14T05:51:53.297Z,0
2017-01-14T05:52:56.773Z,0
2017-01-14T05:53:59.744Z,0
2017-01-14T05:55:02.714Z,0
2017-01-14T05:56:06.193Z,0
2017-01-14T05:57:09.165Z,0
2017-01-14T05:59:15.557Z,0.1
2017-01-14T06:00:18.533Z,0
2017-01-14T06:01:22.011Z,0
2017-01-14T06:02:24.982Z,0
2017-01-14T06:04:31.366Z,0
2017-01-14T06:05:34.339Z,0
2017-01-14T06:06:37.824Z,0.1
2017-01-14T06:07:40.801Z,0
2017-01-14T06:08:43.773Z,0.1
2017-01-14T06:09:47.249Z,0.1
2017-01-14T06:10:50.220Z,0.1
2017-01-14T06:11:53.199Z,0.1
2017-01-14T06:12:56.677Z,0.1
2017-01-14T06:13:59.650Z,0.1
2017-01-14T06:15:02.621Z,0.1
2017-01-14T06:16:06.096Z,0.1
2017-01-14T06:17:09.071Z,0.1
2017-01-14T06:18:12.547Z,0.1
2017-01-14T06:19:15.521Z,0.1
2017-01-14T06:20:18.498Z,0.1
2017-01-14T06:21:21.981Z,0.1
2017-01-14T06:22:24.960Z,0.1
2017-01-14T06:23:27.930Z,0.1
2017-01-14T06:24:31.410Z,0.1
2017-01-14T06:25:34.384Z,0.1
2017-01-14T06:26:37.369Z,0.1
2017-01-14T06:27:40.848Z,0.1
2017-01-14T06:28:43.826Z,0.1
2017-01-14T06:29:46.801Z,0.1
2017-01-14T06:30:50.283Z,0.1
2017-01-14T06:31:53.252Z,0.1
2017-01-14T06:32:56.729Z,0.1
2017-01-14T06:33:59.702Z,0.1
2017-01-14T06:35:02.680Z,0.1
2017-01-14T06:36:06.159Z,0.1
2017-01-14T06:37:09.133Z,0.1
2017-01-14T06:38:12.116Z,0.1
2017-01-14T06:39:15.590Z,0.1
2017-01-14T06:40:18.562Z,0.1
2017-01-14T06:41:21.536Z,0.1
2017-01-14T06:42:25.011Z,0.1
2017-01-14T06:43:27.983Z,0.1
2017-01-14T06:44:30.959Z,0.1
2017-01-14T06:45:34.435Z,0.1
2017-01-14T06:46:37.415Z,0.1
2017-01-14T06:47:40.892Z,0.1
2017-01-14T06:48:43.867Z,0.1
2017-01-14T06:49:46.840Z,0.1
2017-01-14T06:50:50.318Z,0.1
2017-01-14T06:51:53.292Z,0.1
2017-01-14T06:52:56.277Z,0.1
2017-01-14T06:53:59.757Z,0.1
2017-01-14T06:55:02.729Z,0.1
2017-01-14T06:57:09.124Z,0.1
2017-01-14T06:58:12.096Z,0.1
2017-01-14T06:59:15.576Z,0.1
2017-01-14T07:00:18.548Z,0.1
2017-01-14T07:01:21.523Z,0.1
2017-01-14T07:02:24.692Z,0.1
2017-01-14T07:03:28.191Z,0.1
2017-01-14T07:04:31.162Z,0.1
2017-01-14T07:05:34.135Z,0.1
2017-01-14T07:06:37.618Z,0.1
2017-01-14T07:07:40.598Z,0.1
2017-01-14T07:08:43.571Z,0.1
2017-01-14T07:09:47.050Z,0.1
2017-01-14T07:10:50.308Z,0.1
2017-01-14T07:11:53.280Z,0.1
2017-01-14T07:12:56.258Z,0.1
2017-01-14T07:13:59.732Z,0.1
2017-01-14T07:15:02.708Z,0.1
2017-01-14T07:16:05.680Z,0.1
2017-01-14T07:18:12.075Z,0.1
2017-01-14T07:19:15.553Z,0.1
2017-01-14T07:20:18.527Z,0.1
2017-01-14T07:21:21.502Z,0.1
2017-01-14T07:22:24.989Z,0.1
2017-01-14T07:23:27.964Z,0.1
2017-01-14T07:24:30.941Z,0.1
2017-01-14T07:25:34.418Z,0.1
2017-01-14T07:26:37.390Z,0.1
2017-01-14T07:27:40.873Z,0.1
2017-01-14T07:28:43.844Z,0.1
2017-01-14T07:29:46.820Z,0.1
2017-01-14T07:30:50.294Z,0.1
2017-01-14T07:31:53.269Z,0.1
2017-01-14T07:32:56.244Z,0.1
2017-01-14T07:33:59.736Z,0.1
2017-01-14T07:35:02.877Z,0.1
2017-01-14T07:36:05.857Z,0.1
2017-01-14T07:37:08.835Z,0.1
2017-01-14T07:38:12.312Z,0.1
2017-01-14T07:39:15.285Z,0.1
2017-01-14T07:40:18.258Z,0.1
2017-01-14T07:41:21.735Z,0.1
2017-01-14T07:42:24.713Z,0.1
2017-01-14T07:43:28.189Z,0.1
2017-01-14T07:44:31.162Z,0.1
2017-01-14T07:45:34.139Z,0.1
2017-01-14T07:46:37.620Z,0.1
2017-01-14T07:47:40.592Z,0.1
2017-01-14T07:48:43.564Z,0.1
2017-01-14T07:49:47.046Z,0.1
2017-01-14T07:50:50.018Z,0.1
2017-01-14T07:51:52.990Z,0.1
2017-01-14T07:52:56.467Z,0.1
2017-01-14T07:53:59.446Z,0.1
2017-01-14T07:55:02.923Z,0.1
2017-01-14T07:56:05.903Z,0.1
2017-01-14T07:57:08.878Z,0.1
2017-01-14T07:58:12.352Z,0.1
2017-01-14T07:59:15.330Z,0.1
2017-01-14T08:00:18.302Z,0.1
2017-01-14T08:01:21.780Z,0.1
2017-01-14T08:02:24.753Z,0.1
2017-01-14T08:03:27.729Z,0.1
2017-01-14T08:04:31.209Z,0.1
2017-01-14T08:05:34.192Z,0.1
2017-01-14T08:06:37.678Z,0.1
2017-01-14T08:07:40.657Z,0.1
2017-01-14T08:08:43.628Z,0.1
2017-01-14T08:09:47.104Z,0.1
2017-01-14T08:10:50.080Z,0.1
2017-01-14T08:11:53.061Z,0.1
2017-01-14T08:12:56.537Z,0.1
2017-01-14T08:13:59.515Z,0.1
2017-01-14T08:15:02.500Z,0.1
2017-01-14T08:16:05.982Z,0.1
2017-01-14T08:17:08.959Z,0.1
2017-01-14T08:18:11.933Z,0.1
2017-01-14T08:19:15.414Z,0.1
2017-01-14T08:20:18.388Z,0.1
2017-01-14T08:21:21.387Z,0.1
2017-01-14T08:22:24.869Z,0.1
2017-01-14T08:23:27.843Z,0.1
2017-01-14T08:24:31.318Z,0.1
2017-01-14T08:25:34.289Z,0.1
2017-01-14T08:26:37.265Z,0.1
2017-01-14T08:27:40.741Z,0.1
2017-01-14T08:28:43.716Z,0.1
2017-01-14T08:29:46.695Z,0.1
2017-01-14T08:30:50.175Z,0.1
2017-01-14T08:31:53.151Z,0.1
2017-01-14T08:32:56.126Z,0.1
2017-01-14T08:33:59.605Z,0.1
2017-01-14T08:35:02.580Z,0.1
2017-01-14T08:36:06.061Z,0.1
2017-01-14T08:37:09.038Z,0.1
2017-01-14T08:38:12.010Z,0.1
2017-01-14T08:39:15.492Z,0.1
2017-01-14T08:40:18.467Z,0.1
2017-01-14T08:41:21.441Z,0.1
2017-01-14T08:42:24.923Z,0.1
2017-01-14T08:43:27.898Z,0.1
2017-01-14T08:44:30.885Z,0.1
2017-01-14T08:45:34.364Z,0.1
2017-01-14T08:46:37.339Z,0.1
2017-01-14T08:47:40.811Z,0.1
2017-01-14T08:48:43.793Z,0.1
2017-01-14T08:49:46.769Z,0.1
2017-01-14T08:50:50.245Z,0.1
2017-01-14T08:51:53.246Z,0.1
2017-01-14T08:52:56.218Z,0.1
2017-01-14T08:53:59.697Z,0.1
2017-01-14T08:55:02.678Z,0.1
2017-01-14T08:56:05.656Z,0.1
2017-01-14T08:57:09.137Z,0.1
2017-01-14T08:58:12.110Z,0.1
2017-01-14T08:59:15.086Z,0.1
2017-01-14T09:00:18.562Z,0.1
2017-01-14T09:01:21.542Z,0.1
2017-01-14T09:02:24.515Z,0.1
2017-01-14T09:03:27.990Z,0.1
2017-01-14T09:04:30.961Z,0.1
2017-01-14T09:05:34.440Z,0.1
2017-01-14T09:06:37.416Z,0.1
2017-01-14T09:07:40.390Z,0.1
2017-01-14T09:08:43.869Z,0.1
2017-01-14T09:09:46.842Z,0.1
2017-01-14T09:10:49.812Z,0.1
2017-01-14T09:11:53.288Z,0.1
2017-01-14T09:12:56.288Z,0.1
2017-01-14T09:13:59.261Z,0.1
2017-01-14T09:15:02.738Z,0.1
2017-01-14T09:16:05.715Z,0.1
2017-01-14T09:17:09.192Z,0.1
2017-01-14T09:18:12.165Z,0.1
2017-01-14T09:19:15.135Z,0.1
2017-01-14T09:21:21.521Z,0.1
2017-01-14T09:22:24.995Z,0.1
2017-01-14T09:23:27.969Z,0.1
2017-01-14T09:24:30.947Z,0.1
2017-01-14T09:25:34.427Z,0.1
2017-01-14T09:26:37.402Z,0.1
2017-01-14T09:27:40.378Z,0.1
2017-01-14T09:28:43.864Z,0.1
2017-01-14T09:29:46.841Z,0.1
2017-01-14T09:30:49.821Z,0.1
2017-01-14T09:31:53.296Z,0.1
2017-01-14T09:32:56.276Z,0.1
2017-01-14T09:33:59.262Z,0.1
2017-01-14T09:35:02.748Z,0.1
2017-01-14T09:36:05.889Z,0.1
2017-01-14T09:37:08.870Z,0.1
2017-01-14T09:38:11.854Z,0.1
2017-01-14T09:39:15.340Z,0.1
2017-01-14T09:40:18.320Z,0.1
2017-01-14T09:41:21.798Z,0.1
2017-01-14T09:42:24.770Z,0.1
2017-01-14T09:43:27.746Z,0.1
2017-01-14T09:44:31.221Z,0.1
2017-01-14T09:45:34.210Z,0.1
2017-01-14T09:46:37.189Z,0.1
2017-01-14T09:47:40.671Z,0.1
2017-01-14T09:49:47.061Z,0.1
2017-01-14T09:50:50.035Z,0.1
2017-01-14T09:51:53.006Z,0.1
2017-01-14T09:52:56.486Z,0.1
2017-01-14T09:53:59.461Z,0.1
2017-01-14T09:55:02.432Z,0.1
2017-01-14T09:56:05.908Z,0.1
2017-01-14T09:57:08.908Z,0.2
2017-01-14T09:58:11.886Z,0.1
2017-01-14T09:59:15.364Z,0.2
2017-01-14T10:00:19.902Z,0.1
2017-01-14T10:01:21.371Z,0.2
2017-01-14T10:02:24.849Z,0.2
2017-01-14T10:03:27.825Z,0.2
2017-01-14T10:04:30.819Z,0.2
2017-01-14T10:05:34.302Z,0.2
2017-01-14T10:06:37.271Z,0.2
2017-01-14T10:07:40.757Z,0.2
2017-01-14T10:09:46.640Z,0.2
2017-01-14T10:10:50.123Z,0.2
2017-01-14T10:11:53.102Z,0.2
2017-01-14T10:12:56.078Z,0.2
2017-01-14T10:13:59.552Z,0.2
2017-01-14T10:15:02.554Z,0.2
2017-01-14T10:16:05.529Z,0.2
2017-01-14T10:17:09.040Z,0.2
2017-01-14T10:18:12.010Z,0.2
2017-01-14T10:19:15.489Z,0.3
2017-01-14T10:20:18.463Z,0.3
2017-01-14T10:21:21.437Z,0.2
2017-01-14T10:22:24.920Z,0.3
2017-01-14T10:23:27.893Z,0.3
2017-01-14T10:24:30.865Z,0.3
2017-01-14T10:25:34.344Z,0.2
2017-01-14T10:26:37.319Z,0.2
2017-01-14T10:27:40.324Z,0.2
2017-01-14T10:28:43.804Z,0.2
2017-01-14T10:29:46.782Z,0.2
2017-01-14T10:30:49.756Z,0.2
2017-01-14T10:31:53.235Z,0.2
2017-01-14T10:32:56.213Z,0.2
2017-01-14T10:33:59.690Z,0.2
2017-01-14T10:35:02.662Z,0.2
2017-01-14T10:36:05.640Z,0.2
2017-01-14T10:37:09.116Z,0.2
2017-01-14T10:38:12.101Z,0.2
2017-01-14T10:39:15.074Z,0.3
2017-01-14T10:40:18.557Z,0.3
2017-01-14T10:41:21.529Z,0.2
2017-01-14T10:42:24.503Z,0.2
2017-01-14T10:43:27.981Z,0.3
2017-01-14T10:44:30.964Z,0.3
2017-01-14T10:45:34.444Z,0.3
2017-01-14T10:46:37.417Z,0.3
2017-01-14T10:47:40.390Z,0.3
2017-01-14T10:49:46.778Z,0.3
2017-01-14T10:50:49.754Z,0.3
2017-01-14T10:51:53.227Z,0.3
2017-01-14T10:52:56.204Z,0.3
2017-01-14T10:53:59.689Z,0.3
2017-01-14T10:55:02.674Z,0.3
2017-01-14T10:56:05.648Z,0.3
2017-01-14T10:57:09.133Z,0.3
2017-01-14T10:58:12.104Z,0.3
2017-01-14T10:59:15.080Z,0.3
2017-01-14T11:00:18.561Z,0.2
2017-01-14T11:02:24.971Z,0.3
2017-01-14T11:03:27.945Z,0.2
2017-01-14T11:04:30.925Z,0.3
2017-01-14T11:05:34.403Z,0.3
2017-01-14T11:06:37.374Z,0.3
2017-01-14T11:07:40.349Z,0.3
2017-01-14T11:08:43.901Z,0.3
2017-01-14T11:09:46.902Z,0.3
2017-01-14T11:10:49.901Z,0.3
2017-01-14T11:11:53.644Z,0.3
2017-01-14T11:12:56.181Z,0.3
2017-01-14T11:13:59.668Z,0.3
2017-01-14T11:15:02.644Z,0.3
2017-01-14T11:16:05.622Z,0.3
2017-01-14T11:17:09.102Z,0.3
2017-01-14T11:18:12.073Z,0.3
2017-01-14T11:19:15.050Z,0.3
2017-01-14T11:20:18.525Z,0.3
2017-01-14T11:21:21.502Z,0.3
2017-01-14T11:22:25.009Z,0.3
2017-01-14T11:23:27.982Z,0.3
2017-01-14T11:24:30.957Z,0.3
2017-01-14T11:25:34.435Z,0.3
2017-01-14T11:26:37.412Z,0.4
2017-01-14T11:27:40.390Z,0.4
2017-01-14T11:28:43.866Z,0.4
2017-01-14T11:29:46.839Z,0.4
2017-01-14T11:30:49.810Z,0.4
2017-01-14T11:32:56.197Z,0.4
2017-01-14T11:33:59.675Z,0.4
2017-01-14T11:35:02.654Z,0.4
2017-01-14T11:36:05.629Z,0.4
2017-01-14T11:37:09.111Z,0.4
2017-01-14T11:38:12.083Z,0.4
2017-01-14T11:39:15.061Z,0.4
2017-01-14T11:40:18.537Z,0.4
2017-01-14T11:42:24.925Z,0.4
2017-01-14T11:43:27.898Z,0.4
2017-01-14T11:44:30.873Z,0.4
2017-01-14T11:45:34.354Z,0.4
2017-01-14T11:46:37.328Z,0.4
2017-01-14T11:47:40.809Z,0.4
2017-01-14T11:48:43.784Z,0.4
2017-01-14T11:49:46.764Z,0.5
2017-01-14T11:50:50.246Z,0.5
2017-01-14T11:51:53.219Z,0.5
2017-01-14T11:52:56.191Z,0.5
2017-01-14T11:53:59.665Z,0.5
2017-01-14T11:55:02.637Z,0.5
2017-01-14T11:56:06.114Z,0.5
2017-01-14T11:57:09.086Z,0.5
2017-01-14T11:58:12.065Z,0.5
2017-01-14T11:59:15.540Z,0.5
2017-01-14T12:00:18.519Z,0.5
2017-01-14T12:01:21.497Z,0.5
2017-01-14T12:02:24.978Z,0.5
2017-01-14T12:03:27.950Z,0.5
2017-01-14T12:04:30.921Z,0.5
2017-01-14T12:05:34.400Z,0.5
2017-01-14T12:06:37.372Z,0.5
2017-01-14T12:07:40.854Z,0.5
2017-01-14T12:08:43.829Z,0.5
2017-01-14T12:09:46.803Z,0.5
2017-01-14T12:10:50.285Z,0.5
2017-01-14T12:11:53.268Z,0.5
2017-01-14T12:12:56.426Z,0.5
2017-01-14T12:13:59.406Z,0.5
2017-01-14T12:15:02.884Z,0.5
2017-01-14T12:16:05.858Z,0.5
2017-01-14T12:17:09.344Z,0.5
2017-01-14T12:18:12.336Z,0.6
2017-01-14T12:19:15.311Z,0.5
2017-01-14T12:20:18.792Z,0.6
2017-01-14T12:21:21.774Z,0.6
2017-01-14T12:22:24.750Z,0.6
2017-01-14T12:23:28.227Z,0.6
2017-01-14T12:24:31.204Z,0.6
2017-01-14T12:25:34.685Z,0.6
2017-01-14T12:26:37.660Z,0.6
2017-01-14T12:27:40.635Z,0.6
2017-01-14T12:28:44.115Z,0.6
2017-01-14T12:29:47.090Z,0.6
2017-01-14T12:30:50.073Z,0.6
2017-01-14T12:31:53.558Z,0.6
2017-01-14T12:32:56.542Z,0.6
2017-01-14T12:33:59.522Z,0.6
2017-01-14T12:35:02.997Z,0.6
2017-01-14T12:36:05.978Z,0.6
2017-01-14T12:37:09.467Z,0.6
2017-01-14T12:38:12.441Z,0.6
2017-01-14T12:39:15.412Z,0.6
2017-01-14T12:41:21.799Z,0.6
2017-01-14T12:42:25.283Z,0.6
2017-01-14T12:43:28.257Z,0.6
2017-01-14T12:44:31.230Z,0.6
2017-01-14T12:45:34.709Z,0.6
2017-01-14T12:46:37.869Z,0.6
2017-01-14T12:47:40.840Z,0.6
2017-01-14T12:48:44.316Z,0.6
2017-01-14T12:49:47.469Z,0.6
2017-01-14T12:50:50.442Z,0.6
2017-01-14T12:51:53.419Z,0.6
2017-01-14T12:52:56.901Z,0.5
2017-01-14T12:53:59.873Z,0.5
2017-01-14T12:55:02.850Z,0.5
2017-01-14T12:56:06.327Z,0.5
2017-01-14T12:57:09.306Z,0.5
2017-01-14T12:58:12.792Z,0.5
2017-01-14T12:59:15.768Z,0.5
2017-01-14T13:00:18.745Z,0.5
2017-01-14T13:01:22.224Z,0.5
2017-01-14T13:02:25.201Z,0.5
2017-01-14T13:03:28.183Z,0.5
2017-01-14T13:04:31.670Z,0.5
2017-01-14T13:05:34.656Z,0.5
2017-01-14T13:06:38.144Z,0.5
2017-01-14T13:07:41.115Z,0.5
2017-01-14T13:08:44.091Z,0.5
2017-01-14T13:09:47.569Z,0.5
2017-01-14T13:10:50.722Z,0.5
2017-01-14T13:11:53.702Z,0.5
2017-01-14T13:12:56.678Z,0.5
2017-01-14T13:14:00.164Z,0.5
2017-01-14T13:15:03.139Z,0.5
2017-01-14T13:16:06.623Z,0.5
2017-01-14T13:17:09.599Z,0.5
2017-01-14T13:18:12.578Z,0.5
2017-01-14T13:19:16.056Z,0.5
2017-01-14T13:20:19.045Z,0.5
2017-01-14T13:22:25.430Z,0.5
2017-01-14T13:23:28.412Z,0.5
2017-01-14T13:24:31.892Z,0.5
2017-01-14T13:25:34.868Z,0.5
2017-01-14T13:26:37.844Z,0.5
2017-01-14T13:27:41.322Z,0.5
2017-01-14T13:28:44.297Z,0.5
2017-01-14T13:30:50.693Z,0.5
2017-01-14T13:31:53.674Z,0.5
2017-01-14T13:32:57.155Z,0.5
2017-01-14T13:34:00.131Z,0.5
2017-01-14T13:35:03.608Z,0.5
2017-01-14T13:36:06.584Z,0.5
2017-01-14T13:37:09.564Z,0.5
2017-01-14T13:38:13.052Z,0.5
2017-01-14T13:40:19.447Z,0.5
2017-01-14T13:41:22.422Z,0.5
2017-01-14T13:42:25.400Z,0.5
2017-01-14T13:43:28.881Z,0.5
2017-01-14T13:44:31.856Z,0.5
2017-01-14T13:45:34.832Z,0.5
2017-01-14T13:46:38.311Z,0.5
2017-01-14T13:47:41.307Z,0.5
2017-01-14T13:48:44.789Z,0.5
2017-01-14T13:49:47.764Z,0.5
2017-01-14T13:50:50.736Z,0.5
2017-01-14T13:51:54.211Z,0.5
2017-01-14T13:52:57.188Z,0.5
2017-01-14T13:54:00.164Z,0.5
2017-01-14T13:55:03.646Z,0.4
2017-01-14T13:56:06.623Z,0.5
2017-01-14T13:57:10.098Z,0.5
2017-01-14T13:58:13.073Z,0.5
2017-01-14T13:59:16.067Z,0.5
2017-01-14T14:00:19.566Z,0.4
2017-01-14T14:01:22.549Z,0.5
2017-01-14T14:02:25.525Z,0.4
2017-01-14T14:03:29.012Z,0.5
2017-01-14T14:04:31.990Z,0.5
2017-01-14T14:05:35.484Z,0.5
2017-01-14T14:06:38.482Z,0.5
2017-01-14T14:07:41.461Z,0.5
2017-01-14T14:08:44.938Z,0.5
2017-01-14T14:09:47.916Z,0.5
2017-01-14T14:10:50.891Z,0.5
2017-01-14T14:11:54.372Z,0.5
2017-01-14T14:12:57.352Z,0.5
2017-01-14T14:14:00.328Z,0.5
2017-01-14T14:15:03.983Z,0.5
2017-01-14T14:16:06.956Z,0.5
2017-01-14T14:17:09.937Z,0.5
2017-01-14T14:18:13.436Z,0.5
2017-01-14T14:19:16.416Z,0.5
2017-01-14T14:20:19.405Z,0.5
2017-01-14T14:21:22.891Z,0.5
2017-01-14T14:22:25.870Z,0.5
2017-01-14T14:23:29.046Z,0.5
2017-01-14T14:24:32.025Z,0.5
2017-01-14T14:25:35.502Z,0.5
2017-01-14T14:26:38.482Z,0.5
2017-01-14T14:27:41.489Z,0.5
2017-01-14T14:28:44.972Z,0.5
2017-01-14T14:29:47.948Z,0.5
2017-01-14T14:30:51.426Z,0.5
2017-01-14T14:31:54.400Z,0.5
2017-01-14T14:32:57.371Z,0.5
2017-01-14T14:34:00.852Z,0.5
2017-01-14T14:35:03.834Z,0.5
2017-01-14T14:37:10.223Z,0.5
2017-01-14T14:38:13.232Z,0.5
2017-01-14T14:39:16.710Z,0.5
2017-01-14T14:40:19.716Z,0.5
2017-01-14T14:41:22.698Z,0.5
2017-01-14T14:42:26.176Z,0.5
2017-01-14T14:43:29.152Z,0.5
2017-01-14T14:44:32.636Z,0.5
2017-01-14T14:45:35.614Z,0.5
2017-01-14T14:46:38.592Z,0.5
2017-01-14T14:48:44.997Z,0.5
2017-01-14T14:49:48.192Z,0.5
2017-01-14T14:50:51.169Z,0.5
2017-01-14T14:51:54.648Z,0.5
2017-01-14T14:52:57.641Z,0.5
2017-01-14T14:54:01.120Z,0.5
2017-01-14T14:55:04.265Z,0.5
2017-01-14T14:56:07.238Z,0.5
2017-01-14T14:57:10.214Z,0.5
2017-01-14T14:58:13.698Z,0.5
2017-01-14T14:59:16.674Z,0.5
2017-01-14T15:00:20.151Z,0.5
2017-01-14T15:01:23.129Z,0.5